Time;durP1;ratioP1;P1;durP2;ratioP2;P2;SDS_P1;SDS_P2;PMS_P1;PMS_P2;Temp;Humidity;BMP_temperature;BMP_pressure;BME280_temperature;BME280_humidity;BME280_pressure;Samples;Min_cycle;Max_cycle;Signal;HPM_P1;HPM_P2
2024/02/13 00:00:02;;;;;;;;;8.67;8.00;;;;;14.23;100.00;101097.25;2097229;28;46353;-52
2024/02/13 00:01:02;;;;;;;;;10.25;8.75;;;;;14.32;100.00;101099.63;2097351;28;46923;-51
2024/02/13 00:02:03;;;;;;;;;8.00;8.00;;;;;14.13;100.00;101102.00;2097641;28;46792;-48
2024/02/13 00:03:05;;;;;;;;;10.00;8.67;;;;;14.10;100.00;101099.41;2097981;28;46691;-54
2024/02/13 00:04:08;;;;;;;;;10.25;8.00;;;;;14.07;100.00;101106.63;2098028;28;46133;-52
2024/02/13 00:05:09;;;;;;;;;9.00;9.00;;;;;14.06;100.00;101099.53;2098007;28;47576;-52
2024/02/13 00:06:09;;;;;;;;;8.00;8.00;;;;;14.06;100.00;101102.22;2097566;28;46848;-53
2024/02/13 00:07:09;;;;;;;;;10.00;10.00;;;;;14.03;100.00;101105.84;2086638;28;46904;-54
2024/02/13 00:08:10;;;;;;;;;8.00;8.00;;;;;14.17;100.00;101105.44;2089251;28;46261;-54
2024/02/13 00:09:11;;;;;;;;;7.50;7.25;;;;;14.25;100.00;101107.88;2097714;28;46368;-54
2024/02/13 00:10:11;;;;;;;;;11.33;9.00;;;;;14.22;100.00;101114.16;2096895;28;46722;-54
2024/02/13 00:11:13;;;;;;;;;10.33;9.00;;;;;14.23;100.00;101115.03;2095802;28;46469;-55
2024/02/13 00:12:13;;;;;;;;;7.00;7.00;;;;;14.05;100.00;101114.69;2096589;28;46551;-54
2024/02/13 00:13:14;;;;;;;;;11.00;10.00;;;;;14.20;100.00;101115.13;2089288;28;45661;-53
2024/02/13 00:14:15;;;;;;;;;8.00;8.00;;;;;14.07;100.00;101112.81;2089308;28;46634;-53
2024/02/13 00:15:20;;;;;;;;;0.67;0.00;;;;;14.11;100.00;101122.50;2097452;28;46470;-50
2024/02/13 00:16:22;;;;;;;;;10.20;10.20;;;;;13.97;100.00;101116.69;2097644;28;47050;-49
2024/02/13 00:17:23;;;;;;;;;13.40;12.20;;;;;13.92;100.00;101113.28;2097060;28;46982;-52
2024/02/13 00:18:23;;;;;;;;;12.67;12.67;;;;;13.96;100.00;101120.28;2096773;28;46600;-52
2024/02/13 00:19:26;;;;;;;;;14.00;13.00;;;;;13.93;100.00;101116.81;2098603;28;46551;-52
2024/02/13 00:20:27;;;;;;;;;10.40;9.80;;;;;13.92;100.00;101112.41;2096790;28;46882;-53
2024/02/13 00:21:27;;;;;;;;;12.75;12.50;;;;;13.91;100.00;101119.53;2098306;28;46687;-50
2024/02/13 00:22:28;;;;;;;;;11.00;11.00;;;;;14.04;100.00;101120.94;2083285;28;46489;-49
2024/02/13 00:23:29;;;;;;;;;10.00;10.00;;;;;14.02;100.00;101127.25;2083830;28;46782;-49
2024/02/13 00:24:33;;;;;;;;;12.25;12.25;;;;;14.07;100.00;101120.84;2095770;28;45268;-54
2024/02/13 00:25:34;;;;;;;;;10.75;10.50;;;;;14.18;100.00;101117.84;2096949;28;46541;-52
2024/02/13 00:26:34;;;;;;;;;13.50;11.75;;;;;14.20;100.00;101118.69;2097598;28;46275;-53
2024/02/13 00:27:35;;;;;;;;;12.50;10.25;;;;;14.23;100.00;101118.59;2103324;27;46525;-51
2024/02/13 00:28:39;;;;;;;;;9.80;9.40;;;;;14.24;100.00;101120.34;2115416;27;46999;-55
2024/02/13 00:29:39;;;;;;;;;11.00;11.00;;;;;14.25;100.00;101116.75;2113254;27;46799;-52
2024/02/13 00:30:40;;;;;;;;;14.00;12.00;;;;;14.08;100.00;101121.72;2115795;27;46560;-54
2024/02/13 00:31:41;;;;;;;;;12.00;12.00;;;;;14.18;100.00;101120.53;2113830;27;46240;-53
2024/02/13 00:32:42;;;;;;;;;10.00;9.75;;;;;14.20;100.00;101115.13;2106275;27;46269;-54
2024/02/13 00:33:43;;;;;;;;;12.25;12.00;;;;;14.22;100.00;101119.50;2105486;27;45791;-51
2024/02/13 00:34:44;;;;;;;;;2.40;1.00;;;;;14.18;100.00;101114.31;2114519;27;46497;-52
2024/02/13 00:35:45;;;;;;;;;9.00;8.50;;;;;14.19;100.00;101119.59;2116316;27;46630;-53
2024/02/13 00:36:48;;;;;;;;;11.25;11.00;;;;;14.16;100.00;101122.38;2115533;27;46601;-50
2024/02/13 00:37:49;;;;;;;;;12.75;11.00;;;;;14.15;100.00;101128.63;2114408;27;46738;-52
2024/02/13 00:38:49;;;;;;;;;12.75;12.75;;;;;14.12;100.00;101126.94;2115462;27;46835;-49
2024/02/13 00:39:50;;;;;;;;;11.75;11.00;;;;;14.16;100.00;101126.84;2114387;27;46475;-51
2024/02/13 00:40:50;;;;;;;;;12.25;10.75;;;;;14.12;100.00;101128.72;2115873;27;46381;-51
2024/02/13 00:41:51;;;;;;;;;10.00;10.00;;;;;14.15;100.00;101133.97;2113426;27;45927;-51
2024/02/13 00:42:52;;;;;;;;;9.00;9.00;;;;;14.13;100.00;101130.47;2114964;27;46554;-51
2024/02/13 00:43:53;;;;;;;;;8.75;8.00;;;;;14.11;100.00;101127.84;2115953;27;46414;-52
2024/02/13 00:44:54;;;;;;;;;10.25;10.25;;;;;14.07;100.00;101136.84;2114352;27;46713;-50
2024/02/13 00:45:55;;;;;;;;;10.00;10.00;;;;;14.11;100.00;101137.66;2114447;27;45999;-53
2024/02/13 00:46:57;;;;;;;;;9.00;9.00;;;;;14.08;100.00;101135.94;2115533;27;46552;-52
2024/02/13 00:47:57;;;;;;;;;10.75;10.75;;;;;14.09;100.00;101140.34;2115182;27;45797;-53
2024/02/13 00:48:58;;;;;;;;;12.00;12.00;;;;;14.10;100.00;101130.53;2115656;27;46431;-54
2024/02/13 00:49:59;;;;;;;;;13.67;11.33;;;;;14.11;100.00;101137.66;2114250;27;47050;-49
2024/02/13 00:51:00;;;;;;;;;11.75;10.75;;;;;14.11;100.00;101137.66;2114983;27;46430;-52
2024/02/13 00:52:01;;;;;;;;;11.25;11.00;;;;;14.05;100.00;101138.69;2105999;27;46393;-50
2024/02/13 00:53:01;;;;;;;;;10.00;10.00;;;;;14.05;100.00;101135.16;2105227;27;46770;-53
2024/02/13 00:54:02;;;;;;;;;12.33;11.67;;;;;14.04;100.00;101131.59;2114624;27;46432;-50
2024/02/13 00:55:02;;;;;;;;;10.00;10.00;;;;;14.04;100.00;101138.75;2115840;27;46241;-52
2024/02/13 00:56:06;;;;;;;;;10.67;10.67;;;;;13.62;100.00;101139.06;2114918;27;46239;-53
2024/02/13 00:57:08;;;;;;;;;12.75;12.75;;;;;13.53;100.00;101133.97;2115495;27;46707;-53
2024/02/13 00:58:09;;;;;;;;;14.25;13.00;;;;;13.89;100.00;101129.41;2112337;27;46327;-53
2024/02/13 00:59:10;;;;;;;;;14.00;12.00;;;;;13.92;100.00;101128.41;2115508;27;46942;-52
2024/02/13 01:00:10;;;;;;;;;12.00;12.00;;;;;13.92;100.00;101128.41;2118203;27;46299;-54
2024/02/13 01:01:11;;;;;;;;;13.00;12.00;;;;;13.92;100.00;101131.09;2116564;27;46207;-53
2024/02/13 01:02:11;;;;;;;;;13.33;12.33;;;;;14.06;100.00;101131.56;2116287;27;46936;-50
2024/02/13 01:03:12;;;;;;;;;10.33;10.33;;;;;14.09;100.00;101134.13;2116495;27;46485;-51
2024/02/13 01:04:12;;;;;;;;;12.67;11.67;;;;;13.93;100.00;101124.84;2115670;27;46552;-50
2024/02/13 01:05:12;;;;;;;;;11.33;11.00;;;;;14.05;100.00;101128.03;2117901;27;46418;-51
2024/02/13 01:06:13;;;;;;;;;14.00;13.33;;;;;14.05;100.00;101141.38;2114492;27;46150;-50
2024/02/13 01:07:13;;;;;;;;;16.67;13.00;;;;;14.05;100.00;101135.16;2115976;27;46584;-51
2024/02/13 01:08:14;;;;;;;;;10.67;10.67;;;;;13.99;100.00;101136.22;2116547;27;46224;-50
2024/02/13 01:09:14;;;;;;;;;14.00;12.00;;;;;13.98;100.00;101137.13;2115886;27;46350;-53
2024/02/13 01:10:15;;;;;;;;;13.33;12.67;;;;;13.98;100.00;101139.81;2117152;27;46101;-51
2024/02/13 01:11:17;;;;;;;;;17.00;14.75;;;;;13.99;100.00;101138.00;2115996;27;46956;-49
2024/02/13 01:12:19;;;;;;;;;15.50;14.75;;;;;13.97;100.00;101140.69;2116130;27;46341;-49
2024/02/13 01:13:19;;;;;;;;;18.40;17.20;;;;;13.96;100.00;101135.41;2116917;27;46829;-52
2024/02/13 01:14:19;;;;;;;;;18.00;15.00;;;;;13.95;100.00;101133.66;2114853;27;47074;-54
2024/02/13 01:15:21;;;;;;;;;15.00;12.00;;;;;13.96;100.00;101135.41;2116384;27;46673;-52
2024/02/13 01:16:22;;;;;;;;;16.00;14.75;;;;;13.94;100.00;101132.78;2107495;27;46232;-52
2024/02/13 01:17:22;;;;;;;;;15.80;13.00;;;;;13.96;100.00;101135.41;2108427;27;46894;-49
2024/02/13 01:18:24;;;;;;;;;14.50;14.50;;;;;13.97;100.00;101140.69;2117915;27;46704;-49
2024/02/13 01:19:24;;;;;;;;;15.00;14.00;;;;;13.95;100.00;101136.34;2106931;27;46384;-53
2024/02/13 01:20:25;;;;;;;;;9.25;9.25;;;;;13.95;100.00;101133.66;2107425;27;46198;-52
2024/02/13 01:21:25;;;;;;;;;13.75;13.75;;;;;14.03;100.00;101132.53;2116360;27;46204;-51
2024/02/13 01:22:26;;;;;;;;;13.50;13.00;;;;;13.93;100.00;101136.38;2116845;27;45616;-49
2024/02/13 01:23:27;;;;;;;;;14.00;14.00;;;;;13.90;100.00;101140.94;2116268;27;45936;-55
2024/02/13 01:24:27;;;;;;;;;13.50;12.25;;;;;13.89;100.00;101139.19;2113753;27;46227;-53
2024/02/13 01:25:30;;;;;;;;;15.75;15.00;;;;;13.87;100.00;101141.03;2115777;27;46223;-54
2024/02/13 01:26:31;;;;;;;;;14.60;14.00;;;;;13.84;100.00;101134.84;2116714;27;46432;-51
2024/02/13 01:27:31;;;;;;;;;18.25;15.50;;;;;13.86;100.00;101137.50;2115748;27;46685;-51
2024/02/13 01:28:35;;;;;;;;;16.00;14.50;;;;;13.85;100.00;101141.09;2116336;27;46772;-54
2024/02/13 01:29:36;;;;;;;;;15.00;14.60;;;;;13.84;100.00;101145.50;2114639;27;46588;-53
2024/02/13 01:30:37;;;;;;;;;20.50;15.75;;;;;13.86;100.00;101144.63;2115234;27;46344;-51
2024/02/13 01:31:38;;;;;;;;;16.40;16.20;;;;;13.84;100.00;101145.50;2115709;27;46181;-54
2024/02/13 01:32:40;;;;;;;;;15.50;15.25;;;;;13.83;100.00;101143.75;2115491;27;46956;-52
2024/02/13 01:33:43;;;;;;;;;16.60;16.60;;;;;13.84;100.00;101144.63;2116400;27;47112;-53
2024/02/13 01:34:44;;;;;;;;;16.60;16.00;;;;;13.82;100.00;101146.47;2093331;28;46883;-51
2024/02/13 01:35:44;;;;;;;;;18.00;17.50;;;;;13.80;100.00;101146.53;2094144;28;46378;-52
2024/02/13 01:36:45;;;;;;;;;13.75;13.00;;;;;13.79;100.00;101142.09;2116573;27;46409;-53
2024/02/13 01:37:46;;;;;;;;;20.75;19.75;;;;;13.80;100.00;101145.66;2116146;27;46186;-53
2024/02/13 01:38:46;;;;;;;;;20.20;20.20;;;;;13.79;100.00;101144.78;2115439;27;46478;-54
2024/02/13 01:39:47;;;;;;;;;18.25;18.00;;;;;13.78;100.00;101139.50;2116237;27;46342;-53
2024/02/13 01:40:47;;;;;;;;;18.00;16.50;;;;;13.77;100.00;101137.75;2116665;27;46187;-53
2024/02/13 01:41:47;;;;;;;;;20.00;19.25;;;;;13.77;100.00;101138.63;2116207;27;47127;-53
2024/02/13 01:42:49;;;;;;;;;21.75;19.50;;;;;13.76;100.00;101142.22;2115419;27;46635;-52
2024/02/13 01:43:50;;;;;;;;;18.00;17.00;;;;;13.75;100.00;101143.13;2117161;27;46613;-52
2024/02/13 01:44:53;;;;;;;;;17.50;17.50;;;;;13.76;100.00;101144.88;2116180;27;46969;-54
2024/02/13 01:45:56;;;;;;;;;19.00;18.60;;;;;13.75;100.00;101150.25;2116141;27;45743;-51
2024/02/13 01:46:57;;;;;;;;;19.20;19.20;;;;;13.77;100.00;101145.75;2116528;27;46714;-53
2024/02/13 01:48:01;;;;;;;;;19.50;18.00;;;;;13.75;100.00;101153.78;2107201;27;46285;-54
2024/02/13 01:49:03;;;;;;;;;14.80;14.80;;;;;13.72;100.00;101151.22;2107434;27;46404;-52
2024/02/13 01:50:06;;;;;;;;;17.00;17.00;;;;;13.71;100.00;101148.56;2115845;27;46780;-54
2024/02/13 01:51:07;;;;;;;;;21.60;18.20;;;;;13.71;100.00;101153.91;2116742;27;46776;-54
2024/02/13 01:52:07;;;;;;;;;16.50;16.25;;;;;13.70;100.00;101152.16;2116577;27;46426;-52
2024/02/13 01:53:08;;;;;;;;;18.25;16.50;;;;;13.82;100.00;101150.03;2115901;27;46394;-53
2024/02/13 01:54:12;;;;;;;;;15.75;15.75;;;;;13.74;100.00;101156.50;2115025;27;46759;-53
2024/02/13 01:55:14;;;;;;;;;16.60;16.60;;;;;13.73;100.00;101152.97;2117069;27;46607;-54
2024/02/13 01:56:15;;;;;;;;;19.00;19.00;;;;;13.73;100.00;101149.44;2115572;27;46822;-52
2024/02/13 01:57:15;;;;;;;;;22.00;18.00;;;;;13.73;100.00;101146.75;2116730;27;46736;-50
2024/02/13 01:58:19;;;;;;;;;19.50;19.00;;;;;13.71;100.00;101143.22;2116006;27;46315;-53
2024/02/13 01:59:22;;;;;;;;;17.80;15.80;;;;;13.74;100.00;101152.03;2115602;27;46459;-53
2024/02/13 02:00:24;;;;;;;;;20.80;18.60;;;;;13.73;100.00;101155.63;2113008;27;46066;-54
2024/02/13 02:01:27;;;;;;;;;23.00;21.20;;;;;13.75;100.00;101150.25;2115607;27;46580;-51
2024/02/13 02:02:27;;;;;;;;;22.00;21.80;;;;;13.74;100.00;101159.19;2115624;27;46843;-53
2024/02/13 02:03:32;;;;;;;;;22.00;21.75;;;;;13.75;100.00;101160.94;2117582;27;46668;-50
2024/02/13 02:04:32;;;;;;;;;24.40;23.00;;;;;13.73;100.00;101162.75;2114747;27;46658;-53
2024/02/13 02:05:33;;;;;;;;;23.25;23.00;;;;;13.66;100.00;101161.16;2115116;27;46473;-51
2024/02/13 02:06:34;;;;;;;;;25.25;23.25;;;;;13.63;100.00;101163.91;2116692;27;46728;-52
2024/02/13 02:07:35;;;;;;;;;27.20;24.60;;;;;13.61;100.00;101157.75;2115133;27;46853;-52
2024/02/13 02:08:35;;;;;;;;;26.25;25.25;;;;;13.61;100.00;101163.09;2114066;27;46689;-55
2024/02/13 02:09:36;;;;;;;;;22.00;21.00;;;;;13.62;100.00;101154.19;2114715;27;46507;-54
2024/02/13 02:10:36;;;;;;;;;24.25;21.25;;;;;13.64;100.00;101157.66;2116305;27;46645;-54
2024/02/13 02:11:37;;;;;;;;;24.00;24.00;;;;;13.62;100.00;101157.72;2097550;28;46668;-54
2024/02/13 02:12:39;;;;;;;;;24.00;24.00;;;;;13.58;100.00;101152.47;2098512;28;46280;-53
2024/02/13 02:13:40;;;;;;;;;26.60;23.00;;;;;13.58;100.00;101158.69;2098235;28;46724;-54
2024/02/13 02:14:41;;;;;;;;;22.00;22.00;;;;;13.57;100.00;101153.41;2099171;27;45916;-53
2024/02/13 02:15:41;;;;;;;;;21.25;21.25;;;;;13.56;100.00;101152.53;2115971;27;45672;-53
2024/02/13 02:16:41;;;;;;;;;22.50;21.50;;;;;13.54;100.00;101149.91;2117128;27;46371;-55
2024/02/13 02:17:53;;;;;;;;;21.50;20.00;;;;;13.56;100.00;101160.53;2105095;27;45561;-52
2024/02/13 02:18:54;;;;;;;;;24.60;24.60;;;;;13.52;100.00;101150.88;2106754;27;47012;-55
2024/02/13 02:19:56;;;;;;;;;25.75;25.75;;;;;13.51;100.00;101149.13;2115318;27;46450;-53
2024/02/13 02:20:56;;;;;;;;;28.20;25.60;;;;;13.50;100.00;101147.38;2115292;27;46370;-54
2024/02/13 02:21:57;;;;;;;;;18.50;18.25;;;;;13.49;100.00;101149.16;2116659;27;47126;-49
2024/02/13 02:22:57;;;;;;;;;23.00;23.00;;;;;13.51;100.00;101154.47;2116786;27;46248;-54
2024/02/13 02:23:59;;;;;;;;;22.50;22.50;;;;;13.49;100.00;101153.63;2114643;27;46270;-51
2024/02/13 02:24:59;;;;;;;;;29.40;26.80;;;;;13.48;100.00;101151.88;2116273;27;46713;-51
2024/02/13 02:26:02;;;;;;;;;24.25;23.50;;;;;13.50;100.00;101150.03;2117186;27;46339;-55
2024/02/13 02:27:03;;;;;;;;;27.60;25.20;;;;;13.48;100.00;101149.22;2114573;27;47154;-53
2024/02/13 02:28:04;;;;;;;;;27.25;26.00;;;;;13.46;100.00;101153.69;2116071;27;46693;-51
2024/02/13 02:29:05;;;;;;;;;26.40;25.00;;;;;13.47;100.00;101150.13;2116424;27;46249;-50
2024/02/13 02:30:07;;;;;;;;;25.40;24.80;;;;;13.58;100.00;101153.34;2116481;27;46700;-53
2024/02/13 02:31:07;;;;;;;;;26.60;25.00;;;;;13.60;100.00;101156.00;2092981;28;45210;-53
2024/02/13 02:32:09;;;;;;;;;27.00;26.25;;;;;13.61;100.00;101155.97;2093658;28;46628;-54
2024/02/13 02:33:09;;;;;;;;;28.80;26.00;;;;;13.59;100.00;101155.09;2115432;27;46405;-52
2024/02/13 02:34:10;;;;;;;;;24.75;24.50;;;;;13.50;100.00;101150.03;2117370;27;45486;-52
2024/02/13 02:35:11;;;;;;;;;27.40;26.40;;;;;13.48;100.00;101155.44;2113979;27;46686;-49
2024/02/13 02:36:11;;;;;;;;;26.00;24.25;;;;;13.47;100.00;101156.34;2113829;27;46855;-50
2024/02/13 02:37:12;;;;;;;;;24.75;24.50;;;;;13.44;100.00;101150.19;2115472;27;46827;-52
2024/02/13 02:38:15;;;;;;;;;27.40;24.60;;;;;13.51;100.00;101159.78;2104374;27;47220;-50
2024/02/13 02:39:16;;;;;;;;;27.60;26.60;;;;;13.55;100.00;101148.13;2106466;27;47002;-53
2024/02/13 02:40:18;;;;;;;;;24.40;23.80;;;;;13.54;100.00;101152.56;2115545;27;47012;-53
2024/02/13 02:41:20;;;;;;;;;25.00;24.60;;;;;13.57;100.00;101153.41;2116895;27;46701;-53
2024/02/13 02:42:22;;;;;;;;;23.20;21.80;;;;;13.57;100.00;101154.28;2116327;27;46547;-52
2024/02/13 02:43:22;;;;;;;;;21.00;19.00;;;;;13.58;100.00;101152.47;2115660;27;46425;-52
2024/02/13 02:44:22;;;;;;;;;20.25;18.25;;;;;13.58;100.00;101158.69;2116127;27;46444;-53
2024/02/13 02:45:23;;;;;;;;;23.00;22.00;;;;;13.56;100.00;101163.19;2116676;27;46700;-51
2024/02/13 02:46:24;;;;;;;;;23.40;22.00;;;;;13.56;100.00;101163.19;2115777;27;46341;-53
2024/02/13 02:47:24;;;;;;;;;24.75;23.50;;;;;13.55;100.00;101164.13;2106445;27;46272;-52
2024/02/13 02:48:25;;;;;;;;;24.00;22.50;;;;;13.53;100.00;101164.16;2106943;27;46682;-49
2024/02/13 02:49:25;;;;;;;;;25.25;24.75;;;;;13.52;100.00;101167.75;2115173;27;47005;-53
2024/02/13 02:50:25;;;;;;;;;25.75;22.75;;;;;13.52;100.00;101169.53;2116175;27;46609;-54
2024/02/13 02:51:26;;;;;;;;;22.50;22.25;;;;;13.50;100.00;101158.91;2115729;27;47209;-53
2024/02/13 02:52:26;;;;;;;;;22.50;20.50;;;;;13.50;100.00;101163.38;2114143;27;47040;-49
2024/02/13 02:53:27;;;;;;;;;24.50;24.00;;;;;13.50;100.00;101166.03;2116135;27;46858;-52
2024/02/13 02:54:27;;;;;;;;;26.00;24.00;;;;;13.47;100.00;101161.69;2115662;27;45881;-54
2024/02/13 02:55:29;;;;;;;;;24.00;23.00;;;;;13.41;100.00;101160.94;2117249;27;46454;-51
2024/02/13 02:56:30;;;;;;;;;26.00;24.00;;;;;13.39;100.00;101169.00;2114355;27;46490;-50
2024/02/13 02:57:30;;;;;;;;;23.40;22.00;;;;;13.37;100.00;101165.50;2101422;28;46111;-49
2024/02/13 02:58:31;;;;;;;;;23.50;22.25;;;;;13.36;100.00;101168.19;2101179;28;46556;-50
2024/02/13 02:59:31;;;;;;;;;22.75;21.75;;;;;13.35;100.00;101164.66;2115632;27;46781;-50
2024/02/13 03:00:32;;;;;;;;;24.00;22.50;;;;;13.38;100.00;101164.56;2115700;27;46850;-52
2024/02/13 03:01:34;;;;;;;;;25.75;24.75;;;;;13.35;100.00;101163.78;2115535;27;46685;-50
2024/02/13 03:02:35;;;;;;;;;21.00;21.00;;;;;13.37;100.00;101169.94;2115709;27;46784;-53
2024/02/13 03:03:35;;;;;;;;;25.00;23.60;;;;;13.39;100.00;101166.31;2115836;27;46773;-50
2024/02/13 03:04:36;;;;;;;;;22.50;22.50;;;;;13.43;100.00;101164.44;2116010;27;46279;-50
2024/02/13 03:05:36;;;;;;;;;23.25;22.25;;;;;13.44;100.00;101160.84;2115313;27;46306;-52
2024/02/13 03:06:38;;;;;;;;;22.25;21.50;;;;;13.45;100.00;101163.47;2115258;27;46790;-52
2024/02/13 03:07:38;;;;;;;;;26.60;23.60;;;;;13.46;100.00;101164.34;2115502;27;46451;-54
2024/02/13 03:08:40;;;;;;;;;19.00;17.25;;;;;13.46;100.00;101159.91;2116030;27;46183;-51
2024/02/13 03:09:40;;;;;;;;;23.60;22.80;;;;;13.46;100.00;101165.22;2114392;27;46463;-52
2024/02/13 03:10:41;;;;;;;;;19.00;19.00;;;;;13.47;100.00;101158.13;2113748;27;46571;-52
2024/02/13 03:11:42;;;;;;;;;20.00;20.00;;;;;13.48;100.00;101162.56;2115182;27;46319;-49
2024/02/13 03:12:43;;;;;;;;;21.00;21.00;;;;;13.48;100.00;101157.22;2115152;27;46943;-52
2024/02/13 03:13:44;;;;;;;;;23.60;21.60;;;;;13.54;100.00;101152.56;2115006;27;46400;-51
2024/02/13 03:14:44;;;;;;;;;23.50;22.00;;;;;13.57;100.00;101156.94;2117067;27;46147;-49
2024/02/13 03:15:45;;;;;;;;;21.00;19.50;;;;;13.57;100.00;101159.63;2092007;28;46742;-52
2024/02/13 03:16:47;;;;;;;;;13.00;13.00;;;;;13.59;100.00;101159.56;2092460;28;46691;-51
2024/02/13 03:17:48;;;;;;;;;19.20;19.20;;;;;13.61;100.00;101157.75;2114243;27;47180;-52
2024/02/13 03:18:48;;;;;;;;;20.50;19.00;;;;;13.62;100.00;101159.50;2115453;27;46683;-52
2024/02/13 03:19:49;;;;;;;;;20.75;20.75;;;;;13.72;100.00;101161.88;2111367;27;45533;-53
2024/02/13 03:20:49;;;;;;;;;20.20;20.20;;;;;13.80;100.00;101167.88;2116303;27;45340;-52
2024/02/13 03:21:50;;;;;;;;;21.00;18.25;;;;;13.83;100.00;101158.91;2115493;27;46266;-53
2024/02/13 03:22:50;;;;;;;;;18.50;17.50;;;;;13.86;100.00;101155.28;2114795;27;46884;-53
2024/02/13 03:23:50;;;;;;;;;21.25;20.00;;;;;13.74;100.00;101156.50;2115351;27;47459;-52
2024/02/13 03:24:51;;;;;;;;;22.25;19.25;;;;;13.74;100.00;101152.03;2115271;27;46766;-51
2024/02/13 03:25:52;;;;;;;;;22.00;19.00;;;;;13.73;100.00;101152.97;2116292;27;46566;-50
2024/02/13 03:26:52;;;;;;;;;17.75;17.75;;;;;13.75;100.00;101152.91;2115418;27;46578;-50
2024/02/13 03:27:53;;;;;;;;;20.50;18.50;;;;;13.75;100.00;101147.59;2113505;27;46274;-52
2024/02/13 03:28:54;;;;;;;;;18.40;18.40;;;;;13.75;100.00;101144.91;2116241;27;46438;-51
2024/02/13 03:29:54;;;;;;;;;22.50;21.75;;;;;13.75;100.00;101145.78;2116203;27;47215;-53
2024/02/13 03:30:56;;;;;;;;;24.25;22.25;;;;;13.73;100.00;101142.28;2098563;28;46226;-52
2024/02/13 03:31:57;;;;;;;;;20.00;20.00;;;;;13.75;100.00;101147.59;2096969;27;46034;-51
2024/02/13 03:32:57;;;;;;;;;18.50;16.75;;;;;13.76;100.00;101147.53;2114132;27;46152;-53
2024/02/13 03:33:57;;;;;;;;;16.50;14.00;;;;;13.73;100.00;101152.97;2101218;28;46879;-53
2024/02/13 03:34:58;;;;;;;;;18.50;18.00;;;;;13.75;100.00;101151.13;2100917;28;46689;-51
2024/02/13 03:35:59;;;;;;;;;23.75;22.75;;;;;13.75;100.00;101148.47;2113742;27;46224;-50
2024/02/13 03:37:00;;;;;;;;;18.00;18.00;;;;;13.75;100.00;101148.47;2116117;27;45774;-49
2024/02/13 03:38:00;;;;;;;;;18.00;18.00;;;;;13.75;100.00;101148.47;2114835;27;46929;-52
2024/02/13 03:39:00;;;;;;;;;20.50;17.50;;;;;13.73;100.00;101147.63;2115151;27;46328;-52
2024/02/13 03:40:05;;;;;;;;;21.00;18.75;;;;;13.76;100.00;101157.34;2115939;27;45855;-53
2024/02/13 03:41:06;;;;;;;;;2.00;2.00;;;;;13.72;100.00;101155.66;2114411;27;46370;-53
2024/02/13 03:42:07;;;;;;;;;19.25;19.25;;;;;13.70;100.00;101146.81;2116129;27;46859;-54
2024/02/13 03:43:08;;;;;;;;;21.20;19.80;;;;;13.73;100.00;101144.09;2093019;28;46543;-54
2024/02/13 03:44:12;;;;;;;;;18.50;17.75;;;;;13.72;100.00;101144.97;2093438;27;46443;-54
2024/02/13 03:45:13;;;;;;;;;23.60;21.00;;;;;13.70;100.00;101146.81;2115622;27;46429;-54
2024/02/13 03:46:15;;;;;;;;;21.25;20.25;;;;;13.75;100.00;101145.78;2113378;27;46448;-54
2024/02/13 03:47:15;;;;;;;;;21.40;18.80;;;;;13.76;100.00;101142.22;2097714;28;47375;-55
2024/02/13 03:48:16;;;;;;;;;17.75;17.75;;;;;13.75;100.00;101142.25;2088710;28;46971;-53
2024/02/13 03:49:16;;;;;;;;;18.20;18.20;;;;;13.74;100.00;101136.03;2096940;28;46050;-51
2024/02/13 03:50:17;;;;;;;;;22.50;20.75;;;;;13.75;100.00;101142.25;2097418;28;46501;-54
2024/02/13 03:51:17;;;;;;;;;18.50;18.50;;;;;13.75;100.00;101139.59;2095844;28;45934;-51
2024/02/13 03:52:17;;;;;;;;;18.75;18.75;;;;;13.70;100.00;101137.03;2088516;28;48050;-51
2024/02/13 03:53:18;;;;;;;;;16.50;14.00;;;;;13.63;100.00;101135.47;2090132;28;46725;-53
2024/02/13 03:54:18;;;;;;;;;23.75;20.25;;;;;13.62;100.00;101136.38;2096262;28;46674;-55
2024/02/13 03:55:19;;;;;;;;;21.50;20.50;;;;;13.62;100.00;101144.38;2098595;28;46532;-54
2024/02/13 03:56:20;;;;;;;;;21.00;20.20;;;;;13.61;100.00;101142.63;2097662;28;46594;-54
2024/02/13 03:57:20;;;;;;;;;20.75;20.50;;;;;13.59;100.00;101141.78;2097045;28;46775;-54
2024/02/13 03:58:21;;;;;;;;;18.25;17.00;;;;;13.60;100.00;101135.56;2098099;28;46340;-51
2024/02/13 03:59:23;;;;;;;;;18.25;18.25;;;;;13.60;100.00;101138.22;2096936;28;46785;-53
2024/02/13 04:00:23;;;;;;;;;21.20;19.20;;;;;13.61;100.00;101136.44;2098197;28;46352;-53
2024/02/13 04:01:24;;;;;;;;;22.50;22.50;;;;;13.60;100.00;101132.88;2097342;28;46685;-52
2024/02/13 04:02:26;;;;;;;;;22.25;21.00;;;;;13.61;100.00;101136.44;2097038;28;46255;-51
2024/02/13 04:03:26;;;;;;;;;18.60;17.60;;;;;13.61;100.00;101131.09;2097188;28;46637;-51
2024/02/13 04:04:27;;;;;;;;;20.00;20.00;;;;;13.60;100.00;101127.56;2097344;28;46312;-53
2024/02/13 04:05:27;;;;;;;;;17.75;15.25;;;;;13.61;100.00;101128.44;2095675;28;46545;-53
2024/02/13 04:06:28;;;;;;;;;17.00;17.00;;;;;13.60;100.00;101130.22;2088438;28;46943;-51
2024/02/13 04:07:28;;;;;;;;;17.25;16.25;;;;;13.61;100.00;101126.63;2086880;28;46342;-52
2024/02/13 04:08:28;;;;;;;;;20.25;18.25;;;;;13.63;100.00;101131.91;2098239;28;46670;-52
2024/02/13 04:09:28;;;;;;;;;18.00;16.00;;;;;13.64;100.00;101128.34;2097390;28;47565;-53
2024/02/13 04:10:29;;;;;;;;;17.75;16.50;;;;;13.65;100.00;101130.97;2097498;28;46942;-55
2024/02/13 04:11:30;;;;;;;;;17.00;16.00;;;;;13.61;100.00;101131.97;2097331;28;46302;-54
2024/02/13 04:12:30;;;;;;;;;19.60;18.80;;;;;13.63;100.00;101127.47;2097956;28;46244;-54
2024/02/13 04:13:30;;;;;;;;;15.75;15.75;;;;;13.65;100.00;101133.63;2098481;28;46869;-53
2024/02/13 04:14:31;;;;;;;;;15.25;15.25;;;;;13.68;100.00;101127.31;2097493;28;46043;-50
2024/02/13 04:15:35;;;;;;;;;18.40;16.20;;;;;13.71;100.00;101132.56;2097265;28;46567;-52
2024/02/13 04:16:38;;;;;;;;;14.00;13.00;;;;;13.71;100.00;101133.44;2097824;28;46572;-54
2024/02/13 04:17:39;;;;;;;;;15.60;13.80;;;;;13.72;100.00;101134.31;2097890;28;46864;-53
2024/02/13 04:18:40;;;;;;;;;15.50;15.50;;;;;13.72;100.00;101134.31;2098548;28;45841;-53
2024/02/13 04:19:40;;;;;;;;;16.40;16.40;;;;;13.70;100.00;101145.03;2101076;27;46832;-54
2024/02/13 04:20:41;;;;;;;;;15.50;15.50;;;;;13.71;100.00;101145.91;2115799;27;46612;-53
2024/02/13 04:21:41;;;;;;;;;14.00;13.50;;;;;13.66;100.00;101140.69;2114257;27;46390;-52
2024/02/13 04:22:42;;;;;;;;;14.00;14.00;;;;;13.69;100.00;101145.94;2096794;28;46171;-51
2024/02/13 04:23:48;;;;;;;;;18.25;15.75;;;;;13.70;100.00;101152.16;2097149;28;46384;-51
2024/02/13 04:24:49;;;;;;;;;16.40;16.40;;;;;13.69;100.00;101148.63;2112406;27;48112;-53
2024/02/13 04:25:49;;;;;;;;;17.25;15.75;;;;;13.69;100.00;101150.41;2115567;27;46630;-53
2024/02/13 04:26:50;;;;;;;;;17.00;17.00;;;;;13.66;100.00;101142.50;2106370;27;46371;-53
2024/02/13 04:27:51;;;;;;;;;6.20;6.20;;;;;13.66;100.00;101146.03;2105656;27;45333;-51
2024/02/13 04:28:51;;;;;;;;;18.60;18.60;;;;;13.66;100.00;101146.03;2114591;27;45756;-51
2024/02/13 04:29:53;;;;;;;;;21.00;19.75;;;;;13.66;100.00;101151.38;2115094;27;46451;-51
2024/02/13 04:30:53;;;;;;;;;20.20;19.00;;;;;13.66;100.00;101148.69;2115562;27;47024;-53
2024/02/13 04:31:54;;;;;;;;;19.00;18.75;;;;;13.67;100.00;101144.25;2114289;27;46927;-55
2024/02/13 04:32:54;;;;;;;;;17.25;16.00;;;;;13.67;100.00;101144.25;2115517;27;46604;-54
2024/02/13 04:33:55;;;;;;;;;22.25;20.00;;;;;13.67;100.00;101144.25;2097302;28;46331;-54